createdAt,value
2023-06-12T00:01:21.327Z,1.10
2023-06-12T00:03:49.021Z,1.35
2023-06-12T00:06:17.871Z,1.40
2023-06-12T00:08:45.183Z,1.17
2023-06-12T00:11:13.799Z,0.95
2023-06-12T00:13:45.574Z,1.30
2023-06-12T00:16:13.032Z,1.40
2023-06-12T00:18:40.987Z,1.10
2023-06-12T00:21:12.030Z,0.90
2023-06-12T00:23:40.592Z,1.08
2023-06-12T00:26:07.767Z,1.00
2023-06-12T00:28:34.666Z,0.77
2023-06-12T00:31:01.548Z,0.90
2023-06-12T00:33:28.755Z,1.13
2023-06-12T00:35:55.974Z,1.00
2023-06-12T00:38:23.601Z,0.80
2023-06-12T00:40:51.204Z,1.02
2023-06-12T00:43:18.456Z,0.90
2023-06-12T00:45:46.116Z,0.93
2023-06-12T00:48:13.466Z,0.80
2023-06-12T00:50:42.381Z,0.93
2023-06-12T00:53:09.801Z,1.05
2023-06-12T00:55:37.034Z,0.70
2023-06-12T00:58:04.804Z,0.93
2023-06-12T01:00:32.343Z,1.00
2023-06-12T01:03:07.148Z,1.13
2023-06-12T01:05:38.628Z,0.80
2023-06-12T01:08:35.592Z,0.93
2023-06-12T01:11:13.603Z,1.02
2023-06-12T01:13:41.184Z,1.00
2023-06-12T01:16:08.210Z,1.05
2023-06-12T01:18:35.550Z,1.00
2023-06-12T01:21:09.022Z,0.80
2023-06-12T01:23:45.789Z,0.90
2023-06-12T01:26:28.055Z,1.00
2023-06-12T01:28:55.649Z,1.08
2023-06-12T01:31:44.684Z,1.10
2023-06-12T01:34:27.232Z,1.00
2023-06-12T01:37:06.756Z,1.20
2023-06-12T01:39:40.136Z,0.82
2023-06-12T01:42:11.768Z,1.08
2023-06-12T01:44:39.088Z,1.17
2023-06-12T01:47:06.359Z,1.00
2023-06-12T01:49:33.697Z,1.27
2023-06-12T01:52:01.107Z,1.20
2023-06-12T01:54:28.931Z,1.30
2023-06-12T01:56:56.457Z,1.67
2023-06-12T01:59:23.366Z,1.50
2023-06-12T02:01:50.793Z,1.60
2023-06-12T02:04:18.512Z,1.40
2023-06-12T02:06:45.898Z,1.38
2023-06-12T02:09:14.189Z,1.85
2023-06-12T02:11:41.529Z,1.80
2023-06-12T02:14:08.544Z,1.55
2023-06-12T02:16:36.159Z,1.58
2023-06-12T02:19:03.647Z,2.38
2023-06-12T02:21:30.679Z,1.90
2023-06-12T02:23:57.613Z,2.13
2023-06-12T02:26:25.019Z,1.73
2023-06-12T02:29:12.316Z,1.75
2023-06-12T02:31:39.670Z,2.22
2023-06-12T02:34:06.952Z,2.00
2023-06-12T02:36:40.995Z,2.20
2023-06-12T02:39:09.597Z,2.20
2023-06-12T02:41:37.209Z,2.47
2023-06-12T02:44:04.628Z,2.67
2023-06-12T02:46:31.701Z,2.20
2023-06-12T02:48:58.958Z,2.30
2023-06-12T02:51:28.108Z,2.15
2023-06-12T02:53:55.296Z,2.17
2023-06-12T02:56:22.209Z,2.58
2023-06-12T02:58:49.126Z,2.10
2023-06-12T03:01:18.131Z,2.30
2023-06-12T03:03:45.616Z,2.55
2023-06-12T03:06:13.069Z,2.47
2023-06-12T03:08:40.286Z,2.63
2023-06-12T03:11:07.673Z,2.20
2023-06-12T03:13:34.563Z,2.60
2023-06-12T03:16:01.513Z,2.88
2023-06-12T03:18:28.438Z,3.08
2023-06-12T03:20:55.603Z,2.72
2023-06-12T03:23:22.527Z,2.63
2023-06-12T03:25:49.865Z,2.85
2023-06-12T03:28:17.199Z,2.90
2023-06-12T03:30:44.175Z,2.47
2023-06-12T03:33:12.730Z,2.90
2023-06-12T03:35:39.636Z,2.67
2023-06-12T03:38:06.948Z,2.75
2023-06-12T03:40:34.376Z,3.50
2023-06-12T03:43:01.296Z,2.88
2023-06-12T03:45:28.136Z,2.60
2023-06-12T03:47:56.122Z,2.63
2023-06-12T03:50:23.498Z,2.80
2023-06-12T03:52:51.625Z,2.92
2023-06-12T03:55:21.955Z,2.92
2023-06-12T03:57:48.965Z,2.97
2023-06-12T04:00:16.946Z,2.97
2023-06-12T04:02:44.797Z,2.63
2023-06-12T04:05:12.202Z,2.38
2023-06-12T04:07:39.883Z,2.65
2023-06-12T04:10:09.968Z,2.30
2023-06-12T04:12:37.286Z,2.50
2023-06-12T04:15:05.640Z,2.15
2023-06-12T04:17:32.912Z,2.30
2023-06-12T04:20:01.349Z,2.13
2023-06-12T04:22:29.248Z,2.42
2023-06-12T04:24:56.951Z,2.17
2023-06-12T04:27:24.763Z,2.28
2023-06-12T04:29:52.665Z,2.10
2023-06-12T04:32:20.139Z,2.13
2023-06-12T04:34:47.343Z,2.00
2023-06-12T04:37:15.382Z,2.22
2023-06-12T04:39:43.252Z,2.28
2023-06-12T04:42:12.021Z,2.28
2023-06-12T04:44:40.735Z,2.10
2023-06-12T04:47:11.882Z,2.15
2023-06-12T04:49:42.504Z,2.30
2023-06-12T04:52:10.356Z,2.50
2023-06-12T04:54:37.728Z,2.50
2023-06-12T04:57:08.238Z,2.67
2023-06-12T08:52:58.757Z,1.67
2023-06-12T08:55:27.464Z,1.50
2023-06-12T08:57:55.120Z,1.48
2023-06-12T09:00:22.240Z,1.60
2023-06-12T09:02:54.031Z,1.40
2023-06-12T09:05:27.944Z,1.80
2023-06-12T09:07:54.984Z,1.73
2023-06-12T09:10:22.231Z,1.55
2023-06-12T09:12:49.173Z,1.40
2023-06-12T09:17:53.121Z,1.48
2023-06-12T09:28:27.457Z,1.50
2023-06-12T09:30:57.901Z,1.30
2023-06-12T09:33:29.165Z,1.10
2023-06-12T09:35:56.302Z,1.58
2023-06-12T09:38:30.964Z,1.23
2023-06-12T09:40:59.435Z,1.23
2023-06-12T09:43:30.163Z,1.30
2023-06-12T09:45:58.811Z,1.30
2023-06-12T09:48:34.048Z,1.25
2023-06-12T09:51:05.951Z,1.30
2023-06-12T09:53:37.846Z,1.45
2023-06-12T09:56:07.165Z,1.30
2023-06-12T09:58:39.417Z,1.35
2023-06-12T10:01:08.651Z,1.20
2023-06-12T10:03:44.032Z,1.23
2023-06-12T10:06:14.750Z,1.20
2023-06-12T10:08:42.990Z,1.20
2023-06-12T10:11:11.628Z,1.45
2023-06-12T10:13:40.602Z,1.38
2023-06-12T10:16:09.014Z,0.90
2023-06-12T10:18:36.346Z,1.27
2023-06-12T10:21:04.894Z,1.25
2023-06-12T10:23:34.874Z,1.15
2023-06-12T10:26:03.634Z,0.95
2023-06-12T10:28:30.864Z,1.25
2023-06-12T10:31:12.550Z,1.00
2023-06-12T10:34:00.605Z,1.40
2023-06-12T10:36:37.809Z,1.10
2023-06-12T10:39:05.724Z,1.10
2023-06-12T10:41:36.311Z,1.15
2023-06-12T10:44:38.801Z,1.40
2023-06-12T10:47:06.958Z,1.27
2023-06-12T10:50:04.233Z,1.00
2023-06-12T10:52:31.307Z,1.00
2023-06-12T10:55:18.501Z,1.20
2023-06-12T10:57:53.833Z,0.90
2023-06-12T11:00:23.225Z,1.30
2023-06-12T11:03:02.282Z,0.90
2023-06-12T11:05:31.558Z,1.48
2023-06-12T11:08:04.195Z,1.20
2023-06-12T11:10:32.886Z,1.10
2023-06-12T11:13:01.793Z,1.13
2023-06-12T11:15:29.115Z,1.02
2023-06-12T11:17:56.608Z,0.90
2023-06-12T11:20:24.226Z,0.90
2023-06-12T11:23:02.045Z,1.10
2023-06-12T11:25:36.888Z,1.23
2023-06-12T11:28:06.729Z,1.27
2023-06-12T11:30:34.718Z,1.05
2023-06-12T11:33:15.212Z,0.98
2023-06-12T11:35:53.491Z,1.17
2023-06-12T11:40:55.022Z,1.10
2023-06-12T11:43:25.545Z,1.10
2023-06-12T11:45:54.015Z,0.95
2023-06-12T11:50:53.184Z,1.08
2023-06-12T11:53:21.916Z,0.90
2023-06-12T11:58:22.592Z,1.00
2023-06-12T12:00:51.117Z,1.30
2023-06-12T12:03:18.451Z,0.85
2023-06-12T12:05:46.147Z,1.02
2023-06-12T12:08:13.435Z,0.88
2023-06-12T12:10:42.078Z,0.93
2023-06-12T12:13:09.631Z,1.08
2023-06-12T12:15:42.004Z,1.00
2023-06-12T12:18:14.095Z,0.73
2023-06-12T12:20:41.898Z,1.00
2023-06-12T12:23:14.428Z,0.90
2023-06-12T12:25:45.973Z,0.80
2023-06-12T12:28:13.012Z,0.80
2023-06-12T12:30:40.006Z,1.02
2023-06-12T12:33:07.357Z,1.25
2023-06-12T12:35:34.315Z,1.00
2023-06-12T12:38:01.755Z,1.20
2023-06-12T12:40:30.074Z,1.10
2023-06-12T12:42:57.235Z,0.90
2023-06-12T12:45:24.237Z,0.88
2023-06-12T12:47:52.967Z,0.85
2023-06-12T12:50:24.722Z,1.00
2023-06-12T12:52:53.464Z,0.70
2023-06-12T12:55:20.644Z,0.80
2023-06-12T12:57:47.739Z,1.00
2023-06-12T13:00:18.854Z,1.00
2023-06-12T13:02:47.164Z,1.10
2023-06-12T13:05:16.441Z,0.95
2023-06-12T13:07:45.537Z,0.88
2023-06-12T13:10:15.195Z,0.80
2023-06-12T13:12:43.091Z,1.00
2023-06-12T13:15:11.001Z,0.90
2023-06-12T13:17:38.611Z,1.05
2023-06-12T13:20:07.071Z,0.80
2023-06-12T13:22:35.121Z,1.00
2023-06-12T13:25:02.340Z,1.27
2023-06-12T13:27:29.545Z,1.10
2023-06-12T13:29:56.588Z,0.98
2023-06-12T13:32:23.876Z,1.08
2023-06-12T13:34:51.631Z,1.10
2023-06-12T13:37:18.619Z,0.90
2023-06-12T13:39:45.657Z,1.10
2023-06-12T13:42:12.725Z,1.10
2023-06-12T13:44:40.798Z,1.25
2023-06-12T13:47:08.880Z,0.88
2023-06-12T13:49:36.211Z,0.70
2023-06-12T13:52:03.366Z,1.00
2023-06-12T13:54:32.885Z,1.00
2023-06-12T13:57:01.076Z,0.82
2023-06-12T13:59:28.349Z,0.80
2023-06-12T14:01:56.003Z,1.00
2023-06-12T14:04:26.544Z,0.90
2023-06-12T14:06:53.775Z,0.65
2023-06-12T14:09:20.710Z,0.80
2023-06-12T14:11:48.127Z,0.80
2023-06-12T14:14:15.187Z,0.80
2023-06-12T14:16:42.152Z,0.82
2023-06-12T14:19:09.643Z,0.60
2023-06-12T14:21:37.009Z,0.70
2023-06-12T14:24:05.296Z,0.70
2023-06-12T14:26:34.039Z,0.57
2023-06-12T14:29:01.038Z,0.60
2023-06-12T14:31:28.095Z,0.52
2023-06-12T14:33:55.582Z,0.60
2023-06-12T14:36:22.564Z,0.63
2023-06-12T14:38:49.564Z,0.68
2023-06-12T14:41:17.608Z,0.70
2023-06-12T14:43:45.120Z,0.65
2023-06-12T14:46:12.366Z,0.43
2023-06-12T14:48:39.397Z,0.65
2023-06-12T14:51:06.714Z,0.80
2023-06-12T14:53:34.523Z,0.90
2023-06-12T14:56:03.538Z,0.80
2023-06-12T14:58:30.831Z,0.88
2023-06-12T15:00:59.886Z,0.80
2023-06-12T15:03:27.233Z,0.73
2023-06-12T15:05:54.374Z,0.80
2023-06-12T15:08:21.580Z,0.80
2023-06-12T15:10:50.861Z,0.63
2023-06-12T15:13:17.901Z,0.80
2023-06-12T15:15:45.024Z,0.95
2023-06-12T15:18:12.570Z,0.60
2023-06-12T15:20:39.762Z,0.90
2023-06-12T15:23:06.761Z,0.63
2023-06-12T15:25:33.730Z,0.93
2023-06-12T15:28:01.094Z,0.80
2023-06-12T15:30:28.116Z,0.77
2023-06-12T15:32:55.423Z,0.90
2023-06-12T15:35:22.558Z,0.68
2023-06-12T15:37:51.930Z,0.95
2023-06-12T15:40:19.041Z,0.60
2023-06-12T15:42:48.550Z,0.90
2023-06-12T15:45:16.017Z,0.77
2023-06-12T15:47:43.237Z,0.73
2023-06-12T15:50:10.257Z,0.70
2023-06-12T15:52:37.223Z,0.70
2023-06-12T15:55:07.586Z,0.63
2023-06-12T15:57:34.670Z,0.60
2023-06-12T16:00:01.590Z,0.65
2023-06-12T16:02:33.936Z,0.75
2023-06-12T16:05:01.067Z,0.98
2023-06-12T16:07:28.021Z,0.63
2023-06-12T16:09:55.236Z,0.70
2023-06-12T16:12:22.161Z,0.70
2023-06-12T16:14:52.194Z,0.65
2023-06-12T16:17:19.314Z,0.70
2023-06-12T16:19:46.644Z,0.90
2023-06-12T16:22:14.709Z,0.88
2023-06-12T16:24:41.782Z,0.60
2023-06-12T16:27:09.020Z,0.60
2023-06-12T16:29:37.889Z,0.90
2023-06-12T16:32:05.429Z,0.80
2023-06-12T16:34:32.591Z,0.80
2023-06-12T16:36:59.736Z,0.70
2023-06-12T16:39:26.711Z,0.90
2023-06-12T16:41:54.215Z,0.60
2023-06-12T16:44:21.150Z,1.35
2023-06-12T16:46:48.255Z,0.88
2023-06-12T16:49:23.888Z,1.40
2023-06-12T16:51:51.620Z,1.08
2023-06-12T16:54:18.994Z,0.98
2023-06-12T16:56:47.048Z,1.08
2023-06-12T16:59:14.057Z,1.35
2023-06-12T17:01:41.123Z,1.27
2023-06-12T17:04:08.274Z,0.98
2023-06-12T17:06:36.431Z,1.20
2023-06-12T17:09:04.023Z,1.20
2023-06-12T17:11:31.024Z,1.20
2023-06-12T17:13:57.930Z,1.60
2023-06-12T17:16:24.987Z,1.27
2023-06-12T17:18:52.063Z,1.40
2023-06-12T17:21:19.018Z,1.45
2023-06-12T17:23:45.916Z,1.40
2023-06-12T17:26:12.920Z,1.33
2023-06-12T17:28:40.346Z,0.90
2023-06-12T17:31:09.722Z,1.10
2023-06-12T17:33:38.501Z,0.77
2023-06-12T17:36:05.736Z,1.38
2023-06-12T17:38:32.953Z,1.42
2023-06-12T17:40:59.884Z,1.30
2023-06-12T17:43:26.786Z,3.25
2023-06-12T17:45:53.777Z,3.58
2023-06-12T17:48:20.881Z,3.80
2023-06-12T17:50:48.054Z,4.05
2023-06-12T17:53:15.103Z,3.97
2023-06-12T17:55:42.350Z,2.90
2023-06-12T17:58:09.388Z,2.90
2023-06-12T18:00:36.360Z,1.33
2023-06-12T18:03:04.744Z,2.05
2023-06-12T18:05:31.811Z,2.30
2023-06-12T18:07:58.712Z,1.70
2023-06-12T18:10:25.628Z,1.70
2023-06-12T18:12:52.518Z,1.80
2023-06-12T18:15:19.826Z,1.30
2023-06-12T18:17:46.931Z,1.33
2023-06-12T18:20:14.024Z,1.40
2023-06-12T18:22:40.997Z,1.30
2023-06-12T18:25:09.976Z,1.50
2023-06-12T18:27:37.362Z,1.30
2023-06-12T18:30:04.691Z,1.30
2023-06-12T18:32:32.027Z,1.63
2023-06-12T18:34:59.459Z,1.38
2023-06-12T18:37:29.263Z,1.60
2023-06-12T18:39:57.990Z,1.30
2023-06-12T18:42:24.894Z,1.50
2023-06-12T18:44:51.772Z,2.00
2023-06-12T18:47:18.686Z,1.60
2023-06-12T18:49:46.108Z,1.52
2023-06-12T18:52:15.186Z,1.15
2023-06-12T18:54:44.626Z,1.40
2023-06-12T18:57:13.521Z,1.42
2023-06-12T18:59:41.352Z,1.52
2023-06-12T19:02:09.637Z,1.40
2023-06-12T19:04:37.033Z,1.40
2023-06-12T19:07:08.607Z,1.17
2023-06-12T19:09:37.106Z,1.25
2023-06-12T19:12:04.188Z,1.27
2023-06-12T19:14:32.962Z,1.60
2023-06-12T19:17:00.050Z,1.70
2023-06-12T19:19:33.241Z,1.60
2023-06-12T19:22:00.238Z,1.52
2023-06-12T19:24:27.595Z,1.70
2023-06-12T19:26:54.614Z,1.70
2023-06-12T19:29:21.956Z,1.58
2023-06-12T19:31:49.136Z,1.70
2023-06-12T19:34:16.074Z,1.70
2023-06-12T19:36:43.396Z,1.70
2023-06-12T19:39:15.665Z,1.73
2023-06-12T19:41:42.960Z,1.55
2023-06-12T19:44:09.951Z,1.80
2023-06-12T19:46:37.352Z,1.88
2023-06-12T19:49:04.632Z,1.77
2023-06-12T19:51:34.031Z,1.73
2023-06-12T19:54:00.956Z,1.73
2023-06-12T19:56:28.261Z,1.85
2023-06-12T19:58:55.654Z,2.17
2023-06-12T20:01:22.773Z,1.98
2023-06-12T20:03:49.836Z,2.05
2023-06-12T20:06:16.743Z,1.88
2023-06-12T20:08:43.740Z,2.17
2023-06-12T20:11:11.929Z,2.42
2023-06-12T20:13:39.334Z,2.53
2023-06-12T20:16:06.970Z,2.65
2023-06-12T20:18:33.984Z,2.70
2023-06-12T20:21:01.280Z,2.50
2023-06-12T20:23:28.312Z,2.22
2023-06-12T20:25:56.004Z,2.50
2023-06-12T20:28:24.672Z,2.20
2023-06-12T20:30:52.123Z,2.05
2023-06-12T20:33:19.731Z,1.90
2023-06-12T20:35:47.224Z,1.83
2023-06-12T20:38:14.545Z,2.00
2023-06-12T20:40:41.674Z,1.67
2023-06-12T20:43:08.618Z,1.98
2023-06-12T20:45:35.963Z,1.90
2023-06-12T20:48:03.590Z,2.03
2023-06-12T20:50:30.640Z,1.75
2023-06-12T20:52:57.545Z,2.15
2023-06-12T20:55:24.540Z,2.00
2023-06-12T20:57:51.991Z,1.90
2023-06-12T21:00:19.460Z,1.65
2023-06-12T21:02:46.945Z,2.05
2023-06-12T21:05:14.110Z,1.77
2023-06-12T21:07:41.456Z,1.70
2023-06-12T21:10:08.729Z,1.83
2023-06-12T21:12:36.075Z,1.70
2023-06-12T21:15:03.771Z,1.90
2023-06-12T21:17:31.140Z,2.00
2023-06-12T21:20:02.636Z,2.10
2023-06-12T21:22:44.282Z,1.60
2023-06-12T21:25:13.196Z,2.00
2023-06-12T21:27:40.788Z,1.80
2023-06-12T21:30:08.555Z,1.95
2023-06-12T21:32:38.555Z,1.85
2023-06-12T21:35:08.322Z,1.85
2023-06-12T21:37:37.351Z,2.40
2023-06-12T21:40:04.645Z,1.70
2023-06-12T21:42:31.587Z,2.17
2023-06-12T21:44:58.709Z,2.00
2023-06-12T21:47:27.008Z,2.10
2023-06-12T21:49:54.553Z,2.33
2023-06-12T21:52:21.624Z,2.00
2023-06-12T21:54:48.580Z,2.30
2023-06-12T21:57:15.804Z,2.30
2023-06-12T21:59:43.255Z,2.28
2023-06-12T22:02:10.409Z,2.20
2023-06-12T22:04:37.721Z,2.53
2023-06-12T22:07:04.955Z,2.10
2023-06-12T22:09:32.084Z,2.80
2023-06-12T22:11:58.975Z,2.38
2023-06-12T22:14:27.023Z,2.60
2023-06-12T22:16:54.007Z,2.47
2023-06-12T22:19:20.957Z,2.40
2023-06-12T22:21:49.104Z,2.13
2023-06-12T22:24:16.112Z,2.33
2023-06-12T22:26:43.070Z,2.25
2023-06-12T22:29:10.531Z,1.90
2023-06-12T22:31:37.977Z,2.33
2023-06-12T22:34:04.920Z,2.75
2023-06-12T22:36:33.208Z,2.15
2023-06-12T22:39:00.536Z,2.25
2023-06-12T22:41:27.850Z,2.38
2023-06-12T22:43:55.144Z,2.05
2023-06-12T22:46:22.210Z,2.58
2023-06-12T22:48:50.016Z,2.85
2023-06-12T22:51:18.646Z,2.45
2023-06-12T22:53:45.753Z,2.47
2023-06-12T22:56:12.765Z,2.85
2023-06-12T22:58:39.790Z,2.30
2023-06-12T23:01:06.642Z,2.80
2023-06-12T23:03:33.944Z,2.35
2023-06-12T23:06:04.888Z,2.47
2023-06-12T23:08:32.104Z,2.60
2023-06-12T23:11:02.092Z,2.45
2023-06-12T23:13:29.013Z,3.13
2023-06-12T23:15:57.658Z,2.10
2023-06-12T23:18:32.066Z,2.40
2023-06-12T23:21:01.048Z,2.30
2023-06-12T23:23:33.568Z,2.75
2023-06-12T23:26:02.554Z,2.30
2023-06-12T23:28:34.041Z,2.75
2023-06-12T23:31:03.867Z,2.50
2023-06-12T23:33:31.270Z,2.80
2023-06-12T23:35:58.834Z,2.53
2023-06-12T23:38:25.794Z,2.15
2023-06-12T23:40:52.635Z,2.50
2023-06-12T23:43:19.481Z,2.17
2023-06-12T23:45:46.849Z,2.10
2023-06-12T23:48:14.132Z,2.78
2023-06-12T23:50:43.085Z,2.40
2023-06-12T23:53:09.955Z,2.10
2023-06-12T23:55:37.250Z,2.08
2023-06-12T23:58:05.519Z,2.05
